createdAt,value
2023-07-04T00:01:22.732Z,18.22
2023-07-04T00:03:56.755Z,18.24
2023-07-04T00:06:29.207Z,18.23
2023-07-04T00:08:56.604Z,18.24
2023-07-04T00:11:24.501Z,18.25
2023-07-04T00:13:52.189Z,18.27
2023-07-04T00:16:20.308Z,18.25
2023-07-04T00:18:47.368Z,18.23
2023-07-04T00:21:18.321Z,18.17
2023-07-04T00:23:48.711Z,18.13
2023-07-04T00:26:19.629Z,18.06
2023-07-04T00:28:47.530Z,18.02
2023-07-04T00:31:19.550Z,17.94
2023-07-04T00:33:48.327Z,17.89
2023-07-04T00:36:18.181Z,17.84
2023-07-04T00:38:50.255Z,17.77
2023-07-04T00:41:24.570Z,17.71
2023-07-04T00:44:02.882Z,17.67
2023-07-04T00:46:40.221Z,17.64
2023-07-04T00:49:30.788Z,17.62
2023-07-04T00:52:08.187Z,17.61
2023-07-04T00:54:59.664Z,17.61
2023-07-04T00:57:33.910Z,17.62
2023-07-04T01:00:16.896Z,17.61
2023-07-04T01:02:51.075Z,17.59
2023-07-04T01:05:27.327Z,17.59
2023-07-04T01:08:11.906Z,17.59
2023-07-04T01:10:43.763Z,17.61
2023-07-04T01:13:35.713Z,17.60
2023-07-04T01:16:15.665Z,17.58
2023-07-04T01:18:47.931Z,17.53
2023-07-04T01:21:18.988Z,17.53
2023-07-04T01:24:12.645Z,17.53
2023-07-04T01:26:45.409Z,17.52
2023-07-04T01:29:16.870Z,17.52
2023-07-04T01:31:45.940Z,17.50
2023-07-04T01:34:15.943Z,17.48
2023-07-04T01:36:43.663Z,17.47
2023-07-04T01:39:16.706Z,17.43
2023-07-04T01:41:48.721Z,17.42
2023-07-04T01:44:17.801Z,17.42
2023-07-04T01:46:46.056Z,17.39
2023-07-04T01:49:13.922Z,17.38
2023-07-04T01:51:42.861Z,17.38
2023-07-04T01:54:17.370Z,17.38
2023-07-04T01:56:48.874Z,17.37
2023-07-04T01:59:15.957Z,17.39
2023-07-04T02:01:43.100Z,17.41
2023-07-04T02:04:10.583Z,17.44
2023-07-04T02:06:37.652Z,17.44
2023-07-04T02:09:04.882Z,17.46
2023-07-04T02:11:32.182Z,17.48
2023-07-04T02:14:01.479Z,17.49
2023-07-04T02:16:28.852Z,17.53
2023-07-04T02:18:58.491Z,17.55
2023-07-04T02:21:27.686Z,17.57
2023-07-04T02:23:55.681Z,17.53
2023-07-04T02:26:23.155Z,17.51
2023-07-04T02:28:50.187Z,17.49
2023-07-04T02:31:17.412Z,17.46
2023-07-04T02:33:44.522Z,17.41
2023-07-04T02:36:13.296Z,17.39
2023-07-04T02:38:41.852Z,17.33
2023-07-04T02:41:10.546Z,17.27
2023-07-04T02:43:38.584Z,17.21
2023-07-04T02:46:07.839Z,17.13
2023-07-04T02:48:35.603Z,17.08
2023-07-04T02:51:03.469Z,17.01
2023-07-04T02:53:30.787Z,16.94
2023-07-04T02:55:58.167Z,16.89
2023-07-04T02:58:25.256Z,16.84
2023-07-04T03:00:53.471Z,16.78
2023-07-04T03:03:22.949Z,16.74
2023-07-04T03:05:50.307Z,16.70
2023-07-04T03:08:17.745Z,16.70
2023-07-04T03:10:48.275Z,16.69
2023-07-04T03:13:16.063Z,16.65
2023-07-04T03:15:43.390Z,16.63
2023-07-04T03:18:10.617Z,16.63
2023-07-04T03:20:37.708Z,16.60
2023-07-04T03:23:05.249Z,16.59
2023-07-04T03:25:32.376Z,16.57
2023-07-04T03:27:59.404Z,16.56
2023-07-04T03:30:26.565Z,16.53
2023-07-04T03:32:53.725Z,16.50
2023-07-04T03:35:20.929Z,16.48
2023-07-04T03:37:47.984Z,16.48
2023-07-04T03:40:15.238Z,16.48
2023-07-04T03:42:42.606Z,16.44
2023-07-04T03:45:11.108Z,16.43
2023-07-04T03:47:38.326Z,16.41
2023-07-04T03:50:07.544Z,16.41
2023-07-04T03:52:35.169Z,16.42
2023-07-04T03:55:02.553Z,16.43
2023-07-04T03:57:29.749Z,16.45
2023-07-04T03:59:56.796Z,16.47
2023-07-04T04:02:24.305Z,16.51
2023-07-04T04:04:51.777Z,16.56
2023-07-04T04:07:19.068Z,16.60
2023-07-04T04:09:46.275Z,16.65
2023-07-04T04:12:13.378Z,16.75
2023-07-04T04:14:40.469Z,16.83
2023-07-04T04:17:07.697Z,16.95
2023-07-04T04:19:35.377Z,17.04
2023-07-04T04:22:02.538Z,17.15
2023-07-04T04:24:29.884Z,17.23
2023-07-04T04:27:01.943Z,17.27
2023-07-04T04:29:29.333Z,17.33
2023-07-04T04:31:57.153Z,17.38
2023-07-04T04:34:24.237Z,17.48
2023-07-04T04:36:51.322Z,17.54
2023-07-04T04:39:18.506Z,17.61
2023-07-04T04:41:45.638Z,17.67
2023-07-04T04:44:12.777Z,17.71
2023-07-04T04:46:41.926Z,17.82
2023-07-04T04:49:09.277Z,17.87
2023-07-04T04:51:36.385Z,17.86
2023-07-04T04:54:03.724Z,17.78
2023-07-04T04:56:31.223Z,17.73
2023-07-04T04:58:58.254Z,17.72
2023-07-04T05:01:26.592Z,17.80
2023-07-04T05:03:57.678Z,17.93
2023-07-04T05:06:27.191Z,18.06
2023-07-04T05:08:54.368Z,18.14
2023-07-04T05:11:21.935Z,18.27
2023-07-04T05:13:51.692Z,18.38
2023-07-04T05:16:21.738Z,18.49
2023-07-04T05:18:51.144Z,18.56
2023-07-04T05:21:22.690Z,18.64
2023-07-04T05:23:52.613Z,18.70
2023-07-04T05:26:21.513Z,18.75
2023-07-04T05:28:48.885Z,18.87
2023-07-04T05:31:19.707Z,18.99
2023-07-04T05:33:46.848Z,19.06
2023-07-04T05:36:21.676Z,19.15
2023-07-04T05:38:51.020Z,19.21
2023-07-04T05:41:20.811Z,19.26
2023-07-04T05:43:48.617Z,19.29
2023-07-04T05:46:18.615Z,19.32
2023-07-04T05:48:46.282Z,19.39
2023-07-04T05:51:18.394Z,19.47
2023-07-04T05:53:50.467Z,19.55
2023-07-04T05:56:20.230Z,19.66
2023-07-04T05:58:51.026Z,19.78
2023-07-04T06:01:29.452Z,19.89
2023-07-04T06:03:58.305Z,19.96
2023-07-04T06:06:36.459Z,20.03
2023-07-04T06:09:08.297Z,20.02
2023-07-04T06:11:39.710Z,20.08
2023-07-04T06:14:07.848Z,20.16
2023-07-04T06:16:38.372Z,20.28
2023-07-04T06:19:05.624Z,20.36
2023-07-04T06:21:43.279Z,20.40
2023-07-04T06:24:12.912Z,20.41
2023-07-04T06:26:40.170Z,20.28
2023-07-04T06:29:07.231Z,20.30
2023-07-04T06:31:34.546Z,20.31
2023-07-04T06:34:02.065Z,20.41
2023-07-04T06:36:30.520Z,20.65
2023-07-04T06:39:01.776Z,20.77
2023-07-04T06:41:29.084Z,20.78
2023-07-04T06:43:56.264Z,20.85
2023-07-04T06:46:24.425Z,21.00
2023-07-04T06:48:53.216Z,21.09
2023-07-04T06:51:21.424Z,21.15
2023-07-04T06:53:49.412Z,21.19
2023-07-04T06:56:21.861Z,21.38
2023-07-04T06:58:55.754Z,21.48
2023-07-04T07:01:28.827Z,21.56
2023-07-04T07:03:58.319Z,21.84
2023-07-04T07:06:26.692Z,22.03
2023-07-04T07:08:54.365Z,22.14
2023-07-04T07:11:23.048Z,22.39
2023-07-04T07:13:51.162Z,22.48
2023-07-04T07:16:23.058Z,22.64
2023-07-04T07:18:53.108Z,22.74
2023-07-04T07:21:24.606Z,22.64
2023-07-04T07:23:57.304Z,22.57
2023-07-04T07:26:27.536Z,22.51
2023-07-04T07:28:55.922Z,22.54
2023-07-04T07:31:33.988Z,22.45
2023-07-04T07:34:04.261Z,22.39
2023-07-04T07:36:38.614Z,22.40
2023-07-04T07:39:09.692Z,22.46
2023-07-04T07:41:41.567Z,22.47
2023-07-04T07:44:10.829Z,22.58
2023-07-04T07:46:38.384Z,22.55
2023-07-04T07:49:05.621Z,22.57
2023-07-04T07:51:33.020Z,22.63
2023-07-04T07:54:02.168Z,22.71
2023-07-04T07:56:39.191Z,22.77
2023-07-04T07:59:07.093Z,22.87
2023-07-04T08:01:35.798Z,22.87
2023-07-04T08:04:05.300Z,22.84
2023-07-04T08:06:41.468Z,22.66
2023-07-04T08:09:13.842Z,22.62
2023-07-04T08:11:42.508Z,22.81
2023-07-04T08:14:09.662Z,22.90
2023-07-04T08:16:53.259Z,23.11
2023-07-04T08:19:24.596Z,23.26
2023-07-04T08:21:53.100Z,23.51
2023-07-04T08:24:20.500Z,23.45
2023-07-04T08:26:48.815Z,23.45
2023-07-04T08:29:21.484Z,23.58
2023-07-04T08:31:48.892Z,23.45
2023-07-04T08:34:16.155Z,23.49
2023-07-04T08:36:45.447Z,23.57
2023-07-04T08:39:12.747Z,23.82
2023-07-04T08:41:58.075Z,24.06
2023-07-04T08:44:42.407Z,24.24
2023-07-04T08:47:13.998Z,24.21
2023-07-04T08:50:05.217Z,24.13
2023-07-04T08:52:43.359Z,23.99
2023-07-04T08:55:14.558Z,23.89
2023-07-04T08:57:58.642Z,23.88
2023-07-04T09:00:39.885Z,23.99
2023-07-04T09:03:59.479Z,24.29
2023-07-04T09:06:42.969Z,24.41
2023-07-04T09:09:49.143Z,24.22
2023-07-04T09:12:16.481Z,24.12
2023-07-04T09:14:57.937Z,24.21
2023-07-04T09:17:34.759Z,24.38
2023-07-04T09:20:06.366Z,24.55
2023-07-04T09:22:33.513Z,24.56
2023-07-04T09:25:00.629Z,24.59
2023-07-04T09:27:29.791Z,24.57
2023-07-04T09:29:58.486Z,24.61
2023-07-04T09:32:25.592Z,24.62
2023-07-04T09:35:01.316Z,24.60
2023-07-04T09:37:29.420Z,24.67
2023-07-04T09:40:00.404Z,24.77
2023-07-04T09:42:46.175Z,24.68
2023-07-04T09:45:24.127Z,24.86
2023-07-04T09:47:52.529Z,24.88
2023-07-04T09:50:22.624Z,24.93
2023-07-04T09:53:11.246Z,24.93
2023-07-04T09:55:42.464Z,24.77
2023-07-04T09:58:24.748Z,24.88
2023-07-04T10:01:12.927Z,25.10
2023-07-04T10:03:41.462Z,25.27
2023-07-04T10:06:11.270Z,25.43
2023-07-04T10:08:54.552Z,25.46
2023-07-04T10:11:53.056Z,25.20
2023-07-04T10:14:36.197Z,25.36
2023-07-04T10:17:30.286Z,25.66
2023-07-04T10:20:11.743Z,25.95
2023-07-04T10:22:42.573Z,25.99
2023-07-04T10:25:23.070Z,25.94
2023-07-04T10:28:10.297Z,25.89
2023-07-04T10:30:41.208Z,25.95
2023-07-04T10:33:39.983Z,25.96
2023-07-04T10:36:11.847Z,25.97
2023-07-04T10:38:40.804Z,25.98
2023-07-04T10:41:58.205Z,25.93
2023-07-04T10:44:30.549Z,25.96
2023-07-04T10:47:05.656Z,26.10
2023-07-04T10:49:48.134Z,26.21
2023-07-04T10:52:26.498Z,26.41
2023-07-04T10:54:53.938Z,26.50
2023-07-04T10:57:43.581Z,26.19
2023-07-04T11:00:29.102Z,26.26
2023-07-04T11:03:11.530Z,26.05
2023-07-04T11:05:47.879Z,26.11
2023-07-04T11:08:21.657Z,26.48
2023-07-04T11:11:08.088Z,26.64
2023-07-04T11:13:35.629Z,26.48
2023-07-04T11:16:08.542Z,26.68
2023-07-04T11:18:44.210Z,26.91
2023-07-04T11:21:16.211Z,26.83
2023-07-04T11:23:52.306Z,26.76
2023-07-04T11:26:41.611Z,26.93
2023-07-04T11:29:20.190Z,27.50
2023-07-04T11:32:03.465Z,27.67
2023-07-04T11:34:53.135Z,27.67
2023-07-04T11:37:32.063Z,27.85
2023-07-04T11:40:11.849Z,27.92
2023-07-04T11:42:52.391Z,27.97
2023-07-04T11:45:23.746Z,28.12
2023-07-04T11:48:04.673Z,27.98
2023-07-04T11:50:49.157Z,27.81
2023-07-04T11:53:47.050Z,27.54
2023-07-04T11:56:27.776Z,27.71
2023-07-04T11:59:38.917Z,28.05
2023-07-04T12:02:15.362Z,28.22
2023-07-04T12:04:42.418Z,28.06
2023-07-04T12:07:40.231Z,28.10
2023-07-04T12:10:18.888Z,27.93
2023-07-04T12:12:47.981Z,28.17
2023-07-04T12:15:25.781Z,28.50
2023-07-04T12:17:56.046Z,28.62
2023-07-04T12:20:23.556Z,28.23
2023-07-04T12:22:54.591Z,28.10
2023-07-04T12:25:47.551Z,28.25
2023-07-04T12:28:17.587Z,28.44
2023-07-04T12:30:59.856Z,28.33
2023-07-04T12:33:43.178Z,28.22
2023-07-04T12:36:13.123Z,28.21
2023-07-04T12:38:54.496Z,28.36
2023-07-04T12:41:29.220Z,28.25
2023-07-04T12:51:45.776Z,28.41
2023-07-04T12:54:15.543Z,28.15
2023-07-04T12:56:45.882Z,27.80
2023-07-04T12:59:37.825Z,27.52
2023-07-04T13:02:24.008Z,27.29
2023-07-04T13:04:55.348Z,27.02
2023-07-04T13:07:24.827Z,26.83
2023-07-04T13:09:57.239Z,26.69
2023-07-04T13:12:34.963Z,26.52
2023-07-04T13:15:20.191Z,26.36
2023-07-04T13:18:04.977Z,26.17
2023-07-04T13:20:36.110Z,26.09
2023-07-04T13:25:58.216Z,25.87
2023-07-04T13:34:13.926Z,25.32
2023-07-04T13:36:43.747Z,25.32
2023-07-04T13:41:42.538Z,25.23
2023-07-04T13:46:41.894Z,24.90
2023-07-04T13:49:09.294Z,24.79
2023-07-04T13:51:36.532Z,24.77
2023-07-04T13:54:05.466Z,25.02
2023-07-04T13:56:34.125Z,25.59
2023-07-04T13:59:01.645Z,26.24
2023-07-04T14:06:31.241Z,27.45
2023-07-04T14:08:58.595Z,27.91
2023-07-04T14:11:25.838Z,28.45
2023-07-04T14:13:56.589Z,28.86
2023-07-04T14:21:25.818Z,29.49
2023-07-04T14:23:52.971Z,29.65
2023-07-04T14:26:23.164Z,29.85
2023-07-04T14:28:53.712Z,29.90
2023-07-04T14:31:21.262Z,29.82
2023-07-04T14:33:51.515Z,29.85
2023-07-04T14:36:19.343Z,29.97
2023-07-04T14:38:46.490Z,30.06
2023-07-04T14:43:44.732Z,29.90
2023-07-04T14:46:12.022Z,29.92
2023-07-04T14:48:40.844Z,29.95
2023-07-04T14:51:14.275Z,29.92
2023-07-04T14:53:43.824Z,30.01
2023-07-04T14:56:14.925Z,29.97
2023-07-04T14:58:42.992Z,29.93
2023-07-04T15:01:21.307Z,29.90
2023-07-04T15:03:48.661Z,29.75
2023-07-04T15:06:17.315Z,29.79
2023-07-04T15:08:44.670Z,29.82
2023-07-04T15:11:11.901Z,29.76
2023-07-04T15:13:39.104Z,29.51
2023-07-04T15:16:08.601Z,29.30
2023-07-04T15:18:39.525Z,29.19
2023-07-04T15:21:09.654Z,29.13
2023-07-04T15:23:37.664Z,28.95
2023-07-04T15:26:20.080Z,28.81
2023-07-04T15:28:53.047Z,28.80
2023-07-04T15:31:20.789Z,28.74
2023-07-04T15:33:49.956Z,28.57
2023-07-04T15:36:17.323Z,28.24
2023-07-04T15:38:44.414Z,27.86
2023-07-04T15:41:12.322Z,27.54
2023-07-04T15:43:40.666Z,27.26
2023-07-04T15:46:12.368Z,26.94
2023-07-04T15:48:41.832Z,26.63
2023-07-04T15:51:12.622Z,26.39
2023-07-04T15:53:39.752Z,26.21
2023-07-04T15:56:13.889Z,26.07
2023-07-04T15:58:41.798Z,25.90
2023-07-04T16:01:09.845Z,25.81
2023-07-04T16:03:38.098Z,25.82
2023-07-04T16:06:09.789Z,25.83
2023-07-04T16:08:39.775Z,25.80
2023-07-04T16:11:11.747Z,25.71
2023-07-04T16:13:39.128Z,25.68
2023-07-04T16:16:08.664Z,25.74
2023-07-04T16:18:36.589Z,25.81
2023-07-04T16:21:04.013Z,25.90
2023-07-04T16:23:31.561Z,25.94
2023-07-04T16:25:59.028Z,25.79
2023-07-04T16:28:26.283Z,25.65
2023-07-04T16:31:08.212Z,25.42
2023-07-04T16:33:35.987Z,25.22
2023-07-04T16:36:07.029Z,25.07
2023-07-04T16:38:34.928Z,24.98
2023-07-04T16:41:07.634Z,24.95
2023-07-04T16:43:34.899Z,25.01
2023-07-04T16:46:02.040Z,25.02
2023-07-04T16:48:29.103Z,25.07
2023-07-04T16:50:58.347Z,25.11
2023-07-04T16:53:26.380Z,25.09
2023-07-04T16:55:59.625Z,25.15
2023-07-04T16:58:28.639Z,25.37
2023-07-04T17:00:56.344Z,25.64
2023-07-04T17:03:23.949Z,25.70
2023-07-04T17:05:51.467Z,25.63
2023-07-04T17:08:21.764Z,25.48
2023-07-04T17:10:52.307Z,25.31
2023-07-04T17:13:36.671Z,25.15
2023-07-04T17:16:05.430Z,24.98
2023-07-04T17:18:32.557Z,24.83
2023-07-04T17:20:59.589Z,24.65
2023-07-04T17:23:26.711Z,24.45
2023-07-04T17:25:55.863Z,24.27
2023-07-04T17:28:23.330Z,24.10
2023-07-04T17:30:59.100Z,24.01
2023-07-04T17:33:28.954Z,23.85
2023-07-04T17:36:03.439Z,23.72
2023-07-04T17:38:31.588Z,23.63
2023-07-04T17:41:04.261Z,23.54
2023-07-04T17:43:31.398Z,23.46
2023-07-04T17:46:04.186Z,23.36
2023-07-04T17:48:31.545Z,23.29
2023-07-04T17:51:07.176Z,23.23
2023-07-04T17:53:34.729Z,23.14
2023-07-04T17:56:06.559Z,23.07
2023-07-04T17:58:35.483Z,22.98
2023-07-04T18:01:12.824Z,22.87
2023-07-04T18:03:43.619Z,22.80
2023-07-04T18:06:11.534Z,22.74
2023-07-04T18:08:39.214Z,22.67
2023-07-04T18:11:10.338Z,22.61
2023-07-04T18:16:06.482Z,22.47
2023-07-04T18:18:33.483Z,22.39
2023-07-04T18:21:08.540Z,22.34
2023-07-04T18:23:36.363Z,22.27
2023-07-04T18:26:06.381Z,22.25
2023-07-04T18:28:36.515Z,22.17
2023-07-04T18:31:11.086Z,22.05
2023-07-04T18:33:39.821Z,21.91
2023-07-04T18:36:22.275Z,21.83
2023-07-04T18:38:49.965Z,21.81
2023-07-04T18:41:39.927Z,21.76
2023-07-04T18:44:10.636Z,21.68
2023-07-04T18:46:40.347Z,21.66
2023-07-04T18:49:08.732Z,21.66
2023-07-04T18:51:40.030Z,21.65
2023-07-04T18:54:12.591Z,21.62
2023-07-04T18:56:41.931Z,21.62
2023-07-04T18:59:11.338Z,21.63
2023-07-04T19:01:39.010Z,21.61
2023-07-04T19:04:06.616Z,21.58
2023-07-04T19:06:36.580Z,21.54
2023-07-04T19:09:05.761Z,21.50
2023-07-04T19:11:41.890Z,21.48
2023-07-04T19:14:18.585Z,21.47
2023-07-04T19:16:52.907Z,21.45
2023-07-04T19:19:24.554Z,21.43
2023-07-04T19:21:55.114Z,21.41
2023-07-04T19:24:24.431Z,21.40
2023-07-04T19:26:52.549Z,21.39
2023-07-04T19:29:20.208Z,21.37
2023-07-04T19:31:55.462Z,21.32
2023-07-04T19:34:24.797Z,21.26
2023-07-04T19:36:55.054Z,21.22
2023-07-04T19:39:23.527Z,21.19
2023-07-04T19:41:50.636Z,21.16
2023-07-04T19:44:17.932Z,21.12
2023-07-04T19:46:45.129Z,21.04
2023-07-04T19:49:13.375Z,20.98
2023-07-04T19:51:40.598Z,20.95
2023-07-04T19:54:09.079Z,20.90
2023-07-04T19:56:36.592Z,20.88
2023-07-04T19:59:04.997Z,20.86
2023-07-04T20:01:36.902Z,20.85
2023-07-04T20:04:05.044Z,20.85
2023-07-04T20:06:34.169Z,20.83
2023-07-04T20:09:02.824Z,20.83
2023-07-04T20:11:29.994Z,20.80
2023-07-04T20:13:57.691Z,20.75
2023-07-04T20:16:31.592Z,20.71
2023-07-04T20:18:59.648Z,20.69
2023-07-04T20:21:28.562Z,20.66
2023-07-04T20:23:55.725Z,20.65
2023-07-04T20:26:22.890Z,20.61
2023-07-04T20:28:50.384Z,20.55
2023-07-04T20:31:17.662Z,20.54
2023-07-04T20:33:44.809Z,20.53
2023-07-04T20:36:12.610Z,20.52
2023-07-04T20:38:41.145Z,20.47
2023-07-04T20:41:10.910Z,20.40
2023-07-04T20:43:38.042Z,20.35
2023-07-04T20:46:05.988Z,20.27
2023-07-04T20:48:33.068Z,20.20
2023-07-04T20:51:05.643Z,20.13
2023-07-04T20:53:33.333Z,20.07
2023-07-04T20:56:00.724Z,20.03
2023-07-04T20:58:28.049Z,19.99
2023-07-04T21:00:55.764Z,19.89
2023-07-04T21:03:24.547Z,19.80
2023-07-04T21:05:54.352Z,19.76
2023-07-04T21:08:24.281Z,19.70
2023-07-04T21:11:02.174Z,19.64
2023-07-04T21:13:30.062Z,19.60
2023-07-04T21:16:13.742Z,19.58
2023-07-04T21:18:42.697Z,19.57
2023-07-04T21:21:11.060Z,19.58
2023-07-04T21:23:39.047Z,19.61
2023-07-04T21:26:07.391Z,19.61
2023-07-04T21:28:35.797Z,19.61
2023-07-04T21:31:05.084Z,19.61
2023-07-04T21:33:32.324Z,19.61
2023-07-04T21:36:00.983Z,19.61
2023-07-04T21:38:28.587Z,19.61
2023-07-04T21:41:00.425Z,19.60
2023-07-04T21:43:28.111Z,19.59
2023-07-04T21:46:14.618Z,19.59
2023-07-04T21:48:41.733Z,19.59
2023-07-04T21:51:09.730Z,19.59
2023-07-04T21:53:37.367Z,19.56
2023-07-04T21:56:05.121Z,19.56
2023-07-04T21:58:33.277Z,19.51
2023-07-04T22:01:05.627Z,19.48
2023-07-04T22:03:35.660Z,19.43
2023-07-04T22:06:14.455Z,19.39
2023-07-04T22:08:43.469Z,19.37
2023-07-04T22:11:13.825Z,19.36
2023-07-04T22:13:45.427Z,19.35
2023-07-04T22:16:16.952Z,19.34
2023-07-04T22:18:44.478Z,19.33
2023-07-04T22:21:12.912Z,19.29
2023-07-04T22:23:42.190Z,19.28
2023-07-04T22:26:11.648Z,19.24
2023-07-04T22:28:39.697Z,19.23
2023-07-04T22:31:13.381Z,19.23
2023-07-04T22:33:48.526Z,19.23
2023-07-04T22:36:17.872Z,19.24
2023-07-04T22:38:45.175Z,19.28
2023-07-04T22:41:12.366Z,19.32
2023-07-04T22:43:39.477Z,19.31
2023-07-04T22:46:06.557Z,19.12
2023-07-04T22:48:34.210Z,18.94
2023-07-04T22:51:04.025Z,18.79
2023-07-04T22:53:31.330Z,18.65
2023-07-04T22:56:07.062Z,18.59
2023-07-04T22:58:36.453Z,18.54
2023-07-04T23:01:17.806Z,18.51
2023-07-04T23:03:45.184Z,18.45
2023-07-04T23:06:13.158Z,18.39
2023-07-04T23:08:42.116Z,18.35
2023-07-04T23:11:09.376Z,18.27
2023-07-04T23:13:36.970Z,18.21
2023-07-04T23:16:13.731Z,18.19
2023-07-04T23:18:46.767Z,18.19
2023-07-04T23:21:16.299Z,18.15
2023-07-04T23:23:46.149Z,18.05
2023-07-04T23:26:25.955Z,17.96
2023-07-04T23:28:56.755Z,17.89
2023-07-04T23:31:24.253Z,17.86
2023-07-04T23:33:51.419Z,17.83
2023-07-04T23:36:20.788Z,17.80
2023-07-04T23:38:50.070Z,17.80
2023-07-04T23:41:20.745Z,17.78
2023-07-04T23:43:48.713Z,17.78
2023-07-04T23:46:15.904Z,17.82
2023-07-04T23:48:43.128Z,17.78
2023-07-04T23:51:11.000Z,17.76
2023-07-04T23:53:38.167Z,17.73
2023-07-04T23:56:05.658Z,17.72
2023-07-04T23:58:32.671Z,17.71
